sensor_id;sensor_type;location;lat;lon;timestamp;pressure;altitude;pressure_sealevel;temperature;humidity
18527;BME280;9393;42.158;24.748;2023-01-30T00:00:35;99947.28;;;5.86;66.98
18527;BME280;9393;42.158;24.748;2023-01-30T00:03:39;99949.44;;;5.52;68.16
18527;BME280;9393;42.158;24.748;2023-01-30T00:06:43;99948.34;;;5.69;67.35
18527;BME280;9393;42.158;24.748;2023-01-30T00:09:46;99951.81;;;5.95;66.63
18527;BME280;9393;42.158;24.748;2023-01-30T00:12:52;99936.06;;;5.85;66.77
18527;BME280;9393;42.158;24.748;2023-01-30T00:15:55;99943.78;;;5.73;66.87
18527;BME280;9393;42.158;24.748;2023-01-30T00:18:59;99940.47;;;5.71;66.79
18527;BME280;9393;42.158;24.748;2023-01-30T00:22:03;99945.88;;;5.68;66.79
18527;BME280;9393;42.158;24.748;2023-01-30T00:25:07;99949.59;;;5.76;66.51
18527;BME280;9393;42.158;24.748;2023-01-30T00:28:12;99946.91;;;5.65;67.07
18527;BME280;9393;42.158;24.748;2023-01-30T00:31:16;99943.06;;;5.71;66.36
18527;BME280;9393;42.158;24.748;2023-01-30T00:34:20;99942.78;;;5.75;66.01
18527;BME280;9393;42.158;24.748;2023-01-30T00:37:23;99938.50;;;5.62;66.59
18527;BME280;9393;42.158;24.748;2023-01-30T00:40:28;99945.50;;;5.86;65.72
18527;BME280;9393;42.158;24.748;2023-01-30T00:43:33;99944.34;;;5.90;65.71
18527;BME280;9393;42.158;24.748;2023-01-30T00:46:54;99940.53;;;6.08;65.18
18527;BME280;9393;42.158;24.748;2023-01-30T00:50:11;99945.31;;;6.02;65.47
18527;BME280;9393;42.158;24.748;2023-01-30T00:53:17;99939.19;;;5.90;66.11
18527;BME280;9393;42.158;24.748;2023-01-30T00:56:21;99931.59;;;5.75;66.56
18527;BME280;9393;42.158;24.748;2023-01-30T00:59:26;99924.47;;;5.91;66.31
18527;BME280;9393;42.158;24.748;2023-01-30T01:02:30;99936.91;;;5.98;65.71
18527;BME280;9393;42.158;24.748;2023-01-30T01:05:34;99940.94;;;5.90;65.93
18527;BME280;9393;42.158;24.748;2023-01-30T01:08:38;99933.56;;;5.71;66.92
18527;BME280;9393;42.158;24.748;2023-01-30T01:11:41;99921.03;;;5.65;67.38
18527;BME280;9393;42.158;24.748;2023-01-30T01:14:46;99928.25;;;5.73;67.30
18527;BME280;9393;42.158;24.748;2023-01-30T01:17:51;99925.75;;;5.58;67.79
18527;BME280;9393;42.158;24.748;2023-01-30T01:20:55;99923.00;;;5.74;67.37
18527;BME280;9393;42.158;24.748;2023-01-30T01:24:00;99920.19;;;5.77;67.08
18527;BME280;9393;42.158;24.748;2023-01-30T01:27:04;99915.94;;;5.76;67.20
18527;BME280;9393;42.158;24.748;2023-01-30T01:30:11;99909.34;;;5.85;66.99
18527;BME280;9393;42.158;24.748;2023-01-30T01:33:16;99916.69;;;5.78;67.27
18527;BME280;9393;42.158;24.748;2023-01-30T01:36:19;99904.06;;;5.86;67.04
18527;BME280;9393;42.158;24.748;2023-01-30T01:39:43;99903.34;;;5.84;67.05
18527;BME280;9393;42.158;24.748;2023-01-30T01:43:14;99906.94;;;5.69;67.21
18527;BME280;9393;42.158;24.748;2023-01-30T01:46:23;99904.47;;;5.80;67.11
18527;BME280;9393;42.158;24.748;2023-01-30T01:49:30;99900.75;;;5.84;66.61
18527;BME280;9393;42.158;24.748;2023-01-30T01:52:36;99910.09;;;5.87;66.39
18527;BME280;9393;42.158;24.748;2023-01-30T01:55:41;99909.22;;;5.74;66.85
18527;BME280;9393;42.158;24.748;2023-01-30T01:58:48;99903.53;;;5.81;66.30
18527;BME280;9393;42.158;24.748;2023-01-30T02:01:58;99904.91;;;5.87;65.72
18527;BME280;9393;42.158;24.748;2023-01-30T02:05:04;99904.69;;;5.90;65.77
18527;BME280;9393;42.158;24.748;2023-01-30T02:08:10;99897.97;;;5.87;65.20
18527;BME280;9393;42.158;24.748;2023-01-30T02:11:21;99900.03;;;5.82;65.46
18527;BME280;9393;42.158;24.748;2023-01-30T02:14:27;99904.16;;;5.85;65.32
18527;BME280;9393;42.158;24.748;2023-01-30T02:17:32;99903.25;;;5.98;64.43
18527;BME280;9393;42.158;24.748;2023-01-30T02:20:50;99897.28;;;5.58;65.02
18527;BME280;9393;42.158;24.748;2023-01-30T02:24:18;99894.97;;;5.93;64.79
18527;BME280;9393;42.158;24.748;2023-01-30T02:27:50;99888.16;;;5.92;64.15
18527;BME280;9393;42.158;24.748;2023-01-30T02:31:20;99887.69;;;5.73;64.44
18527;BME280;9393;42.158;24.748;2023-01-30T02:34:38;99896.94;;;5.90;64.00
18527;BME280;9393;42.158;24.748;2023-01-30T02:37:56;99890.19;;;5.75;63.23
18527;BME280;9393;42.158;24.748;2023-01-30T02:41:12;99882.84;;;5.69;63.50
18527;BME280;9393;42.158;24.748;2023-01-30T02:44:25;99877.97;;;5.77;63.48
18527;BME280;9393;42.158;24.748;2023-01-30T02:47:38;99890.31;;;5.98;63.18
18527;BME280;9393;42.158;24.748;2023-01-30T02:50:47;99887.19;;;5.93;63.29
18527;BME280;9393;42.158;24.748;2023-01-30T02:53:53;99884.81;;;5.78;63.29
18527;BME280;9393;42.158;24.748;2023-01-30T02:56:58;99886.28;;;5.94;63.37
18527;BME280;9393;42.158;24.748;2023-01-30T03:00:04;99879.63;;;5.65;63.97
18527;BME280;9393;42.158;24.748;2023-01-30T03:03:35;99883.38;;;5.86;63.94
18527;BME280;9393;42.158;24.748;2023-01-30T03:06:57;99875.72;;;5.97;63.49
18527;BME280;9393;42.158;24.748;2023-01-30T03:10:08;99879.03;;;5.99;63.11
18527;BME280;9393;42.158;24.748;2023-01-30T03:13:26;99878.78;;;5.77;63.90
18527;BME280;9393;42.158;24.748;2023-01-30T03:16:36;99868.84;;;5.84;64.02
18527;BME280;9393;42.158;24.748;2023-01-30T03:19:42;99868.84;;;5.84;64.25
18527;BME280;9393;42.158;24.748;2023-01-30T03:22:46;99870.59;;;5.83;64.18
18527;BME280;9393;42.158;24.748;2023-01-30T03:25:50;99861.19;;;5.44;65.41
18527;BME280;9393;42.158;24.748;2023-01-30T03:28:54;99861.06;;;5.58;64.69
18527;BME280;9393;42.158;24.748;2023-01-30T03:31:58;99853.94;;;5.62;64.40
18527;BME280;9393;42.158;24.748;2023-01-30T03:35:05;99846.19;;;5.75;63.51
18527;BME280;9393;42.158;24.748;2023-01-30T03:38:09;99857.44;;;5.36;64.11
18527;BME280;9393;42.158;24.748;2023-01-30T03:41:13;99855.97;;;5.32;64.06
18527;BME280;9393;42.158;24.748;2023-01-30T03:44:16;99852.91;;;5.65;63.80
18527;BME280;9393;42.158;24.748;2023-01-30T03:47:20;99856.81;;;5.45;64.40
18527;BME280;9393;42.158;24.748;2023-01-30T03:50:27;99845.84;;;5.41;63.60
18527;BME280;9393;42.158;24.748;2023-01-30T03:53:30;99855.47;;;5.52;63.90
18527;BME280;9393;42.158;24.748;2023-01-30T03:56:34;99858.25;;;5.24;64.29
18527;BME280;9393;42.158;24.748;2023-01-30T03:59:38;99856.09;;;5.43;64.08
18527;BME280;9393;42.158;24.748;2023-01-30T04:02:43;99862.28;;;5.28;64.14
18527;BME280;9393;42.158;24.748;2023-01-30T04:05:51;99856.94;;;5.43;64.26
18527;BME280;9393;42.158;24.748;2023-01-30T04:08:55;99859.31;;;5.59;63.32
18527;BME280;9393;42.158;24.748;2023-01-30T04:12:11;99850.09;;;5.42;63.94
18527;BME280;9393;42.158;24.748;2023-01-30T04:15:24;99847.91;;;5.24;63.80
18527;BME280;9393;42.158;24.748;2023-01-30T04:18:48;99853.50;;;5.30;63.99
18527;BME280;9393;42.158;24.748;2023-01-30T04:21:58;99853.34;;;5.71;62.96
18527;BME280;9393;42.158;24.748;2023-01-30T04:25:02;99848.34;;;5.43;62.84
18527;BME280;9393;42.158;24.748;2023-01-30T04:28:06;99846.03;;;5.13;64.32
18527;BME280;9393;42.158;24.748;2023-01-30T04:31:12;99852.41;;;5.07;64.17
18527;BME280;9393;42.158;24.748;2023-01-30T04:34:18;99849.94;;;5.06;63.77
18527;BME280;9393;42.158;24.748;2023-01-30T04:37:24;99843.63;;;5.10;63.67
18527;BME280;9393;42.158;24.748;2023-01-30T04:40:28;99850.09;;;5.30;63.45
18527;BME280;9393;42.158;24.748;2023-01-30T04:43:31;99848.69;;;5.12;63.79
18527;BME280;9393;42.158;24.748;2023-01-30T04:46:52;99847.09;;;5.36;63.43
18527;BME280;9393;42.158;24.748;2023-01-30T04:49:56;99853.44;;;5.44;63.54
18527;BME280;9393;42.158;24.748;2023-01-30T04:53:01;99842.13;;;5.33;63.44
18527;BME280;9393;42.158;24.748;2023-01-30T04:56:05;99851.22;;;5.26;63.16
18527;BME280;9393;42.158;24.748;2023-01-30T04:59:09;99847.72;;;5.39;63.52
18527;BME280;9393;42.158;24.748;2023-01-30T05:02:17;99845.19;;;5.13;64.26
18527;BME280;9393;42.158;24.748;2023-01-30T05:05:25;99840.72;;;5.02;64.07
18527;BME280;9393;42.158;24.748;2023-01-30T05:08:30;99849.31;;;5.15;63.73
18527;BME280;9393;42.158;24.748;2023-01-30T05:11:33;99846.03;;;5.38;62.99
18527;BME280;9393;42.158;24.748;2023-01-30T05:14:37;99856.38;;;5.26;63.34
18527;BME280;9393;42.158;24.748;2023-01-30T05:17:42;99852.88;;;5.27;62.51
18527;BME280;9393;42.158;24.748;2023-01-30T05:20:45;99852.34;;;5.22;62.97
18527;BME280;9393;42.158;24.748;2023-01-30T05:23:52;99851.00;;;5.16;63.02
18527;BME280;9393;42.158;24.748;2023-01-30T05:26:55;99848.91;;;5.21;62.96
18527;BME280;9393;42.158;24.748;2023-01-30T05:29:59;99853.00;;;4.98;63.16
18527;BME280;9393;42.158;24.748;2023-01-30T05:33:03;99849.72;;;5.09;63.52
18527;BME280;9393;42.158;24.748;2023-01-30T05:36:07;99849.44;;;5.14;63.39
18527;BME280;9393;42.158;24.748;2023-01-30T05:39:17;99854.50;;;5.15;62.75
18527;BME280;9393;42.158;24.748;2023-01-30T05:42:21;99851.34;;;4.97;63.42
18527;BME280;9393;42.158;24.748;2023-01-30T05:45:24;99850.66;;;5.08;62.95
18527;BME280;9393;42.158;24.748;2023-01-30T05:48:28;99850.56;;;5.09;63.05
18527;BME280;9393;42.158;24.748;2023-01-30T05:51:32;99848.88;;;4.96;63.49
18527;BME280;9393;42.158;24.748;2023-01-30T05:54:37;99850.16;;;5.16;63.15
18527;BME280;9393;42.158;24.748;2023-01-30T05:57:41;99851.97;;;5.01;63.21
18527;BME280;9393;42.158;24.748;2023-01-30T06:00:45;99845.47;;;4.95;63.68
18527;BME280;9393;42.158;24.748;2023-01-30T06:03:49;99850.31;;;5.00;63.08
18527;BME280;9393;42.158;24.748;2023-01-30T06:06:53;99858.06;;;5.00;63.49
18527;BME280;9393;42.158;24.748;2023-01-30T06:09:58;99850.56;;;5.09;63.16
18527;BME280;9393;42.158;24.748;2023-01-30T06:13:02;99856.91;;;4.91;63.78
18527;BME280;9393;42.158;24.748;2023-01-30T06:16:07;99856.94;;;5.04;63.31
18527;BME280;9393;42.158;24.748;2023-01-30T06:19:13;99859.69;;;5.28;62.66
18527;BME280;9393;42.158;24.748;2023-01-30T06:22:16;99860.91;;;4.83;64.26
18527;BME280;9393;42.158;24.748;2023-01-30T06:25:22;99858.31;;;4.83;63.26
18527;BME280;9393;42.158;24.748;2023-01-30T06:28:26;99859.56;;;4.90;63.35
18527;BME280;9393;42.158;24.748;2023-01-30T06:31:29;99860.38;;;4.78;63.54
18527;BME280;9393;42.158;24.748;2023-01-30T06:34:33;99867.78;;;4.70;64.16
18527;BME280;9393;42.158;24.748;2023-01-30T06:37:37;99868.13;;;4.78;64.05
18527;BME280;9393;42.158;24.748;2023-01-30T06:40:45;99870.13;;;4.87;63.86
18527;BME280;9393;42.158;24.748;2023-01-30T06:43:49;99865.13;;;5.10;63.29
18527;BME280;9393;42.158;24.748;2023-01-30T06:46:53;99866.00;;;5.24;62.74
18527;BME280;9393;42.158;24.748;2023-01-30T06:49:56;99863.19;;;4.87;63.44
18527;BME280;9393;42.158;24.748;2023-01-30T06:53:01;99866.59;;;5.15;62.80
18527;BME280;9393;42.158;24.748;2023-01-30T06:56:09;99869.16;;;5.02;63.16
18527;BME280;9393;42.158;24.748;2023-01-30T06:59:12;99871.94;;;4.99;63.56
18527;BME280;9393;42.158;24.748;2023-01-30T07:02:16;99876.78;;;5.03;63.07
18527;BME280;9393;42.158;24.748;2023-01-30T07:05:20;99870.16;;;5.26;62.52
18527;BME280;9393;42.158;24.748;2023-01-30T07:08:24;99875.88;;;5.44;62.01
18527;BME280;9393;42.158;24.748;2023-01-30T07:11:29;99876.25;;;5.38;62.48
18527;BME280;9393;42.158;24.748;2023-01-30T07:14:33;99876.66;;;5.19;62.74
18527;BME280;9393;42.158;24.748;2023-01-30T07:17:39;99866.94;;;5.23;63.10
18527;BME280;9393;42.158;24.748;2023-01-30T07:20:46;99871.50;;;5.32;62.65
18527;BME280;9393;42.158;24.748;2023-01-30T07:23:50;99878.41;;;5.31;62.86
18527;BME280;9393;42.158;24.748;2023-01-30T07:26:55;99880.41;;;5.40;62.45
18527;BME280;9393;42.158;24.748;2023-01-30T07:29:59;99877.00;;;5.52;62.25
18527;BME280;9393;42.158;24.748;2023-01-30T07:33:04;99881.59;;;5.22;62.80
18527;BME280;9393;42.158;24.748;2023-01-30T07:36:08;99877.50;;;5.45;62.61
18527;BME280;9393;42.158;24.748;2023-01-30T07:39:12;99877.34;;;5.60;62.30
18527;BME280;9393;42.158;24.748;2023-01-30T07:42:17;99869.44;;;5.49;62.49
18527;BME280;9393;42.158;24.748;2023-01-30T07:45:21;99876.66;;;5.32;62.46
18527;BME280;9393;42.158;24.748;2023-01-30T07:48:25;99873.72;;;5.63;62.28
18527;BME280;9393;42.158;24.748;2023-01-30T07:51:28;99871.94;;;5.76;61.71
18527;BME280;9393;42.158;24.748;2023-01-30T07:54:32;99871.41;;;5.58;62.59
18527;BME280;9393;42.158;24.748;2023-01-30T07:57:38;99875.56;;;5.74;61.10
18527;BME280;9393;42.158;24.748;2023-01-30T08:00:43;99866.69;;;5.78;61.08
18527;BME280;9393;42.158;24.748;2023-01-30T08:03:47;99857.09;;;5.92;60.69
18527;BME280;9393;42.158;24.748;2023-01-30T08:06:51;99865.34;;;5.97;60.54
18527;BME280;9393;42.158;24.748;2023-01-30T08:09:55;99865.34;;;5.85;61.14
18527;BME280;9393;42.158;24.748;2023-01-30T08:13:00;99864.19;;;5.51;60.98
18527;BME280;9393;42.158;24.748;2023-01-30T08:16:05;99863.47;;;5.74;60.58
18527;BME280;9393;42.158;24.748;2023-01-30T08:19:09;99859.53;;;5.56;60.74
18527;BME280;9393;42.158;24.748;2023-01-30T08:22:13;99857.50;;;5.22;61.46
18527;BME280;9393;42.158;24.748;2023-01-30T08:25:17;99858.06;;;5.52;61.06
18527;BME280;9393;42.158;24.748;2023-01-30T08:28:23;99853.13;;;5.74;60.61
18527;BME280;9393;42.158;24.748;2023-01-30T08:31:27;99852.19;;;5.50;61.75
18527;BME280;9393;42.158;24.748;2023-01-30T08:34:31;99854.22;;;5.45;61.25
18527;BME280;9393;42.158;24.748;2023-01-30T08:37:35;99856.22;;;5.67;60.89
18527;BME280;9393;42.158;24.748;2023-01-30T08:40:39;99848.38;;;5.68;61.17
18527;BME280;9393;42.158;24.748;2023-01-30T08:43:44;99854.97;;;5.85;60.44
18527;BME280;9393;42.158;24.748;2023-01-30T08:46:48;99856.22;;;5.79;60.81
18527;BME280;9393;42.158;24.748;2023-01-30T08:49:52;99856.47;;;5.89;60.67
18527;BME280;9393;42.158;24.748;2023-01-30T08:52:55;99852.28;;;5.74;60.88
18527;BME280;9393;42.158;24.748;2023-01-30T08:55:59;99848.88;;;5.48;61.71
18527;BME280;9393;42.158;24.748;2023-01-30T08:59:05;99849.34;;;5.28;61.66
18527;BME280;9393;42.158;24.748;2023-01-30T09:02:09;99842.75;;;5.49;61.57
18527;BME280;9393;42.158;24.748;2023-01-30T09:05:13;99838.41;;;5.49;61.62
18527;BME280;9393;42.158;24.748;2023-01-30T09:08:17;99840.50;;;5.57;61.28
18527;BME280;9393;42.158;24.748;2023-01-30T09:11:20;99835.72;;;5.64;60.48
18527;BME280;9393;42.158;24.748;2023-01-30T09:14:26;99836.78;;;5.61;60.70
18527;BME280;9393;42.158;24.748;2023-01-30T09:17:29;99829.22;;;5.58;60.93
18527;BME280;9393;42.158;24.748;2023-01-30T09:20:33;99819.19;;;5.79;60.12
18527;BME280;9393;42.158;24.748;2023-01-30T09:23:37;99821.84;;;5.77;60.48
18527;BME280;9393;42.158;24.748;2023-01-30T09:26:41;99815.34;;;5.84;60.11
18527;BME280;9393;42.158;24.748;2023-01-30T09:29:48;99813.97;;;6.04;59.28
18527;BME280;9393;42.158;24.748;2023-01-30T09:32:51;99807.78;;;5.81;60.32
18527;BME280;9393;42.158;24.748;2023-01-30T09:35:55;99795.66;;;5.31;61.16
18527;BME280;9393;42.158;24.748;2023-01-30T09:38:59;99796.72;;;5.67;59.98
18527;BME280;9393;42.158;24.748;2023-01-30T09:42:21;99788.72;;;5.70;60.32
18527;BME280;9393;42.158;24.748;2023-01-30T09:45:59;99786.25;;;6.06;59.35
18527;BME280;9393;42.158;24.748;2023-01-30T09:49:19;99769.88;;;5.80;59.31
18527;BME280;9393;42.158;24.748;2023-01-30T09:52:31;99774.44;;;6.02;59.71
18527;BME280;9393;42.158;24.748;2023-01-30T09:55:38;99774.97;;;5.82;60.74
18527;BME280;9393;42.158;24.748;2023-01-30T09:58:48;99767.41;;;5.79;60.27
18527;BME280;9393;42.158;24.748;2023-01-30T10:01:59;99749.69;;;5.85;60.36
18527;BME280;9393;42.158;24.748;2023-01-30T10:05:08;99750.25;;;5.52;60.78
18527;BME280;9393;42.158;24.748;2023-01-30T10:08:39;99741.31;;;5.69;61.18
18527;BME280;9393;42.158;24.748;2023-01-30T10:11:56;99735.94;;;5.85;60.59
18527;BME280;9393;42.158;24.748;2023-01-30T10:15:21;99731.94;;;5.55;60.43
18527;BME280;9393;42.158;24.748;2023-01-30T10:18:44;99727.16;;;5.62;60.31
18527;BME280;9393;42.158;24.748;2023-01-30T10:21:55;99717.41;;;5.91;59.99
18527;BME280;9393;42.158;24.748;2023-01-30T10:25:13;99711.69;;;5.98;59.79
18527;BME280;9393;42.158;24.748;2023-01-30T10:28:23;99702.72;;;6.15;59.59
18527;BME280;9393;42.158;24.748;2023-01-30T10:31:31;99695.66;;;6.17;59.56
18527;BME280;9393;42.158;24.748;2023-01-30T10:34:41;99690.16;;;5.98;59.60
18527;BME280;9393;42.158;24.748;2023-01-30T10:37:52;99684.59;;;5.91;60.18
18527;BME280;9393;42.158;24.748;2023-01-30T10:41:04;99674.34;;;5.77;60.29
18527;BME280;9393;42.158;24.748;2023-01-30T10:44:11;99671.97;;;5.87;59.77
18527;BME280;9393;42.158;24.748;2023-01-30T10:47:38;99658.72;;;5.79;60.18
18527;BME280;9393;42.158;24.748;2023-01-30T10:50:53;99647.94;;;5.85;59.61
18527;BME280;9393;42.158;24.748;2023-01-30T10:54:02;99640.91;;;6.10;59.58
18527;BME280;9393;42.158;24.748;2023-01-30T10:57:16;99633.47;;;6.30;59.19
18527;BME280;9393;42.158;24.748;2023-01-30T11:00:27;99632.38;;;5.97;59.85
18527;BME280;9393;42.158;24.748;2023-01-30T11:03:36;99628.88;;;5.98;59.38
18527;BME280;9393;42.158;24.748;2023-01-30T11:06:44;99613.44;;;6.32;58.63
18527;BME280;9393;42.158;24.748;2023-01-30T11:09:48;99612.16;;;6.26;58.69
18527;BME280;9393;42.158;24.748;2023-01-30T11:12:55;99597.63;;;6.47;58.55
18527;BME280;9393;42.158;24.748;2023-01-30T11:16:04;99594.19;;;6.12;59.04
18527;BME280;9393;42.158;24.748;2023-01-30T11:19:09;99584.16;;;5.96;59.63
18527;BME280;9393;42.158;24.748;2023-01-30T11:22:24;99585.06;;;6.19;59.47
18527;BME280;9393;42.158;24.748;2023-01-30T11:25:29;99588.72;;;6.28;58.70
18527;BME280;9393;42.158;24.748;2023-01-30T11:28:40;99576.72;;;6.38;58.21
18527;BME280;9393;42.158;24.748;2023-01-30T11:31:50;99559.63;;;6.13;59.02
18527;BME280;9393;42.158;24.748;2023-01-30T11:35:02;99550.47;;;6.20;58.83
18527;BME280;9393;42.158;24.748;2023-01-30T11:38:19;99557.03;;;6.13;59.12
18527;BME280;9393;42.158;24.748;2023-01-30T11:41:23;99540.13;;;6.42;58.29
18527;BME280;9393;42.158;24.748;2023-01-30T11:44:27;99536.88;;;6.51;58.90
18527;BME280;9393;42.158;24.748;2023-01-30T11:47:32;99530.63;;;6.65;55.75
18527;BME280;9393;42.158;24.748;2023-01-30T11:50:39;99523.44;;;6.57;54.49
18527;BME280;9393;42.158;24.748;2023-01-30T11:53:54;99516.72;;;6.66;53.48
18527;BME280;9393;42.158;24.748;2023-01-30T11:57:01;99511.75;;;6.63;52.33
18527;BME280;9393;42.158;24.748;2023-01-30T12:00:13;99512.47;;;6.54;51.58
18527;BME280;9393;42.158;24.748;2023-01-30T12:03:22;99514.94;;;6.67;51.74
18527;BME280;9393;42.158;24.748;2023-01-30T12:06:30;99506.59;;;6.63;50.02
18527;BME280;9393;42.158;24.748;2023-01-30T12:09:36;99491.63;;;6.33;49.74
18527;BME280;9393;42.158;24.748;2023-01-30T12:12:44;99487.63;;;6.51;49.41
18527;BME280;9393;42.158;24.748;2023-01-30T12:15:54;99481.63;;;6.51;49.68
18527;BME280;9393;42.158;24.748;2023-01-30T12:19:04;99483.63;;;6.36;49.77
18527;BME280;9393;42.158;24.748;2023-01-30T12:22:18;99479.34;;;6.13;50.10
18527;BME280;9393;42.158;24.748;2023-01-30T12:25:26;99479.47;;;6.23;50.04
18527;BME280;9393;42.158;24.748;2023-01-30T12:28:41;99474.31;;;6.34;49.95
18527;BME280;9393;42.158;24.748;2023-01-30T12:31:52;99464.78;;;6.45;50.35
18527;BME280;9393;42.158;24.748;2023-01-30T12:35:00;99460.66;;;6.43;50.46
18527;BME280;9393;42.158;24.748;2023-01-30T12:38:11;99456.19;;;6.56;50.71
18527;BME280;9393;42.158;24.748;2023-01-30T12:41:29;99467.59;;;6.42;50.67
18527;BME280;9393;42.158;24.748;2023-01-30T12:44:50;99458.50;;;6.15;51.16
18527;BME280;9393;42.158;24.748;2023-01-30T12:48:11;99459.72;;;6.44;50.63
18527;BME280;9393;42.158;24.748;2023-01-30T12:51:31;99450.63;;;6.38;50.43
18527;BME280;9393;42.158;24.748;2023-01-30T12:54:47;99438.16;;;6.43;50.46
18527;BME280;9393;42.158;24.748;2023-01-30T12:57:59;99435.44;;;6.56;49.89
18527;BME280;9393;42.158;24.748;2023-01-30T13:01:17;99430.75;;;6.39;50.16
18527;BME280;9393;42.158;24.748;2023-01-30T13:04:35;99427.47;;;6.48;49.71
18527;BME280;9393;42.158;24.748;2023-01-30T13:08:15;99422.03;;;6.40;50.01
18527;BME280;9393;42.158;24.748;2023-01-30T13:11:39;99419.44;;;6.51;49.99
18527;BME280;9393;42.158;24.748;2023-01-30T13:14:53;99422.13;;;6.72;50.08
18527;BME280;9393;42.158;24.748;2023-01-30T13:18:06;99417.09;;;6.48;50.13
18527;BME280;9393;42.158;24.748;2023-01-30T13:21:15;99416.22;;;6.81;49.93
18527;BME280;9393;42.158;24.748;2023-01-30T13:24:39;99411.38;;;6.76;49.81
18527;BME280;9393;42.158;24.748;2023-01-30T13:27:52;99403.31;;;6.36;49.81
18527;BME280;9393;42.158;24.748;2023-01-30T13:30:59;99407.88;;;6.66;49.92
18527;BME280;9393;42.158;24.748;2023-01-30T13:34:08;99410.72;;;6.63;49.97
18527;BME280;9393;42.158;24.748;2023-01-30T13:37:15;99402.00;;;6.53;50.02
18527;BME280;9393;42.158;24.748;2023-01-30T13:40:22;99403.19;;;6.38;50.18
18527;BME280;9393;42.158;24.748;2023-01-30T13:43:29;99394.97;;;6.55;49.71
18527;BME280;9393;42.158;24.748;2023-01-30T13:46:37;99391.72;;;6.74;49.17
18527;BME280;9393;42.158;24.748;2023-01-30T13:49:44;99390.06;;;6.84;49.51
18527;BME280;9393;42.158;24.748;2023-01-30T13:52:55;99395.25;;;6.84;49.59
18527;BME280;9393;42.158;24.748;2023-01-30T13:56:07;99397.41;;;6.56;49.46
18527;BME280;9393;42.158;24.748;2023-01-30T14:00:06;99394.97;;;6.22;50.82
18527;BME280;9393;42.158;24.748;2023-01-30T14:03:25;99383.88;;;6.42;50.80
18527;BME280;9393;42.158;24.748;2023-01-30T14:06:37;99384.59;;;6.33;50.89
18527;BME280;9393;42.158;24.748;2023-01-30T14:09:44;99395.41;;;6.38;50.97
18527;BME280;9393;42.158;24.748;2023-01-30T14:12:50;99392.50;;;6.20;51.32
18527;BME280;9393;42.158;24.748;2023-01-30T14:15:56;99386.25;;;6.12;51.90
18527;BME280;9393;42.158;24.748;2023-01-30T14:19:24;99391.63;;;5.86;52.70
18527;BME280;9393;42.158;24.748;2023-01-30T14:22:34;99390.72;;;5.98;53.04
18527;BME280;9393;42.158;24.748;2023-01-30T14:25:52;99392.59;;;6.19;53.17
18527;BME280;9393;42.158;24.748;2023-01-30T14:28:57;99386.16;;;6.13;53.56
18527;BME280;9393;42.158;24.748;2023-01-30T14:35:47;99376.13;;;5.97;54.58
18527;BME280;9393;42.158;24.748;2023-01-30T14:38:56;99375.19;;;5.98;54.59
18527;BME280;9393;42.158;24.748;2023-01-30T14:42:20;99372.59;;;5.87;55.47
18527;BME280;9393;42.158;24.748;2023-01-30T14:45:44;99370.44;;;5.81;55.49
18527;BME280;9393;42.158;24.748;2023-01-30T14:48:51;99369.06;;;6.10;54.80
18527;BME280;9393;42.158;24.748;2023-01-30T14:51:59;99369.28;;;5.85;55.62
18527;BME280;9393;42.158;24.748;2023-01-30T14:55:06;99368.53;;;5.61;56.32
18527;BME280;9393;42.158;24.748;2023-01-30T14:58:19;99374.00;;;5.91;55.56
18527;BME280;9393;42.158;24.748;2023-01-30T15:01:23;99377.75;;;5.87;55.48
18527;BME280;9393;42.158;24.748;2023-01-30T15:04:31;99369.09;;;5.99;55.52
18527;BME280;9393;42.158;24.748;2023-01-30T15:07:39;99364.00;;;5.41;56.48
18527;BME280;9393;42.158;24.748;2023-01-30T15:11:06;99373.19;;;5.56;56.24
18527;BME280;9393;42.158;24.748;2023-01-30T15:14:13;99367.56;;;5.62;56.94
18527;BME280;9393;42.158;24.748;2023-01-30T15:17:27;99371.22;;;5.59;56.69
18527;BME280;9393;42.158;24.748;2023-01-30T15:20:44;99364.53;;;5.79;56.23
18527;BME280;9393;42.158;24.748;2023-01-30T15:27:35;99367.38;;;5.65;56.73
18527;BME280;9393;42.158;24.748;2023-01-30T15:30:50;99362.81;;;5.45;56.57
18527;BME280;9393;42.158;24.748;2023-01-30T15:33:58;99367.78;;;5.59;56.38
18527;BME280;9393;42.158;24.748;2023-01-30T15:37:02;99368.03;;;5.56;56.58
18527;BME280;9393;42.158;24.748;2023-01-30T15:40:18;99368.75;;;5.58;56.70
18527;BME280;9393;42.158;24.748;2023-01-30T15:43:48;99366.84;;;5.49;56.86
18527;BME280;9393;42.158;24.748;2023-01-30T15:47:08;99365.22;;;5.13;57.73
18527;BME280;9393;42.158;24.748;2023-01-30T15:50:17;99368.13;;;5.43;56.84
18527;BME280;9393;42.158;24.748;2023-01-30T15:53:25;99362.16;;;5.54;56.55
18527;BME280;9393;42.158;24.748;2023-01-30T15:56:30;99366.56;;;5.30;57.28
18527;BME280;9393;42.158;24.748;2023-01-30T15:59:37;99369.78;;;5.21;57.31
18527;BME280;9393;42.158;24.748;2023-01-30T16:02:42;99364.06;;;5.28;57.23
18527;BME280;9393;42.158;24.748;2023-01-30T16:05:47;99363.84;;;5.31;57.44
18527;BME280;9393;42.158;24.748;2023-01-30T16:08:55;99357.56;;;5.12;57.37
18527;BME280;9393;42.158;24.748;2023-01-30T16:12:01;99356.31;;;5.17;57.34
18527;BME280;9393;42.158;24.748;2023-01-30T16:15:12;99365.47;;;4.97;58.01
18527;BME280;9393;42.158;24.748;2023-01-30T16:18:27;99355.38;;;4.94;57.86
18527;BME280;9393;42.158;24.748;2023-01-30T16:21:34;99358.09;;;5.04;57.52
18527;BME280;9393;42.158;24.748;2023-01-30T16:24:43;99359.38;;;4.98;57.06
18527;BME280;9393;42.158;24.748;2023-01-30T16:27:49;99356.41;;;4.92;56.95
18527;BME280;9393;42.158;24.748;2023-01-30T16:31:01;99354.09;;;4.76;56.89
18527;BME280;9393;42.158;24.748;2023-01-30T16:34:05;99357.91;;;4.83;56.66
18527;BME280;9393;42.158;24.748;2023-01-30T16:37:25;99352.69;;;4.72;56.55
18527;BME280;9393;42.158;24.748;2023-01-30T16:40:43;99347.84;;;4.91;56.30
18527;BME280;9393;42.158;24.748;2023-01-30T16:44:06;99342.47;;;4.71;57.13
18527;BME280;9393;42.158;24.748;2023-01-30T16:47:21;99341.84;;;4.67;57.34
18527;BME280;9393;42.158;24.748;2023-01-30T16:50:25;99339.19;;;4.80;56.86
18527;BME280;9393;42.158;24.748;2023-01-30T16:53:31;99338.06;;;4.84;56.85
18527;BME280;9393;42.158;24.748;2023-01-30T16:56:35;99331.03;;;4.86;56.67
18527;BME280;9393;42.158;24.748;2023-01-30T16:59:39;99331.63;;;4.89;56.73